Time;durP1;ratioP1;P1;durP2;ratioP2;P2;SDS_P1;SDS_P2;PMS_P1;PMS_P2;Temp;Humidity;BMP_temperature;BMP_pressure;BME280_temperature;BME280_humidity;BME280_pressure;Samples;Min_cycle;Max_cycle;Signal;HPM_P1;HPM_P2
2022/09/21 00:05:35;;;;;;;;;;;9.00;99.90;;;;;;12463342;28;19936;-85
2022/09/21 00:11:36;;;;;;;;;;;9.00;99.90;;;;;;12465593;28;19925;-85
2022/09/21 00:17:38;;;;;;;;;;;9.00;99.90;;;;;;12473117;28;19936;-85
2022/09/21 00:23:40;;;;;;;;;;;8.90;99.90;;;;;;12470380;28;19932;-85
2022/09/21 00:29:41;;;;;;;;;;;8.80;99.90;;;;;;12467824;28;19925;-85
2022/09/21 00:35:43;;;;;;;;;;;8.80;99.90;;;;;;12461669;28;19934;-85
2022/09/21 00:41:45;;;;;;;;;;;8.70;99.90;;;;;;12460722;28;19936;-85
2022/09/21 00:47:50;;;;;;;;;;;8.60;99.90;;;;;;12462473;28;19952;-85
2022/09/21 00:53:56;;;;;;;;;;;8.70;99.90;;;;;;12460032;28;19941;-85
2022/09/21 01:00:00;;;;;;;;;;;8.60;99.90;;;;;;12475745;28;19933;-85
2022/09/21 01:06:02;;;;;;;;;;;8.50;99.90;;;;;;12464931;28;19979;-85
2022/09/21 01:12:09;;;;;;;;;;;8.50;99.90;;;;;;12469144;28;19940;-85
2022/09/21 01:18:19;;;;;;;;;;;8.70;99.90;;;;;;12458651;28;19944;-85
2022/09/21 01:24:27;;;;;;;;;;;8.70;99.90;;;;;;12462606;28;19936;-85
2022/09/21 01:30:32;;;;;;;;;;;8.90;99.90;;;;;;12476954;28;19925;-85
2022/09/21 01:36:35;;;;;;;;;;;9.00;99.90;;;;;;12472621;28;19929;-85
2022/09/21 01:42:39;;;;;;;;;;;8.70;99.90;;;;;;12463170;28;19936;-85
2022/09/21 01:48:43;;;;;;;;;;;8.60;99.90;;;;;;12475647;28;19926;-85
2022/09/21 01:54:55;;;;;;;;;;;8.60;99.90;;;;;;12468349;28;20301;-85
2022/09/21 02:00:57;;;;;;;;;;;8.50;99.90;;;;;;12481815;28;21182;-86
2022/09/21 02:06:59;;;;;;;;;;;8.50;99.90;;;;;;12488283;28;20012;-85
2022/09/21 02:13:05;;;;;;;;;;;8.50;99.90;;;;;;12483510;28;20393;-85
2022/09/21 02:19:16;;;;;;;;;;;8.40;99.90;;;;;;12487384;28;19925;-85
2022/09/21 02:25:31;;;;;;;;;;;8.30;99.90;;;;;;12487819;28;19933;-85
2022/09/21 02:31:42;;;;;;;;;;;8.30;99.90;;;;;;12481676;28;19929;-85
2022/09/21 02:37:53;;;;;;;;;;;8.30;99.90;;;;;;12477871;28;19962;-85
2022/09/21 02:44:01;;;;;;;;;;;8.30;99.90;;;;;;12480145;28;19929;-85
2022/09/21 02:50:05;;;;;;;;;;;8.20;99.90;;;;;;12483528;28;19925;-85
2022/09/21 02:56:07;;;;;;;;;;;8.20;99.90;;;;;;12471438;28;19925;-85
2022/09/21 03:02:11;;;;;;;;;;;8.00;99.90;;;;;;12492922;28;19925;-85
2022/09/21 03:08:13;;;;;;;;;;;8.00;99.90;;;;;;12478171;28;19925;-85
2022/09/21 03:14:17;;;;;;;;;;;7.90;99.90;;;;;;12461684;28;19926;-85
2022/09/21 03:20:18;;;;;;;;;;;7.90;99.90;;;;;;12475920;28;19925;-85
2022/09/21 03:26:21;;;;;;;;;;;7.80;99.90;;;;;;12471430;28;19930;-85
2022/09/21 03:32:22;;;;;;;;;;;8.00;99.90;;;;;;12470768;28;19929;-85
2022/09/21 03:38:25;;;;;;;;;;;8.10;99.90;;;;;;12467866;28;20300;-85
2022/09/21 03:44:28;;;;;;;;;;;8.10;99.90;;;;;;12466835;28;20371;-85
2022/09/21 03:50:30;;;;;;;;;;;7.90;99.90;;;;;;12470876;28;19925;-85
2022/09/21 03:56:31;;;;;;;;;;;7.80;99.90;;;;;;12461769;28;20428;-85
2022/09/21 04:02:33;;;;;;;;;;;7.80;99.90;;;;;;12476506;28;19936;-85
2022/09/21 04:08:35;;;;;;;;;;;7.70;99.90;;;;;;12476597;28;20025;-85
2022/09/21 04:14:37;;;;;;;;;;;7.80;99.90;;;;;;12482821;28;19929;-86
2022/09/21 04:20:40;;;;;;;;;;;7.80;99.90;;;;;;12464968;28;19932;-85
2022/09/21 04:26:42;;;;;;;;;;;7.80;99.90;;;;;;12462894;28;19929;-85
2022/09/21 04:32:43;;;;;;;;;;;7.70;99.90;;;;;;12476115;28;19932;-85
2022/09/21 04:38:45;;;;;;;;;;;7.70;99.90;;;;;;12457700;28;19932;-85
2022/09/21 04:44:47;;;;;;;;;;;7.60;99.90;;;;;;12479582;28;19951;-85
2022/09/21 04:50:49;;;;;;;;;;;7.60;99.90;;;;;;12469141;28;19932;-85
2022/09/21 04:56:50;;;;;;;;;;;7.40;99.90;;;;;;12456842;28;19930;-85
2022/09/21 05:02:52;;;;;;;;;;;7.50;99.90;;;;;;12462416;28;20385;-86
2022/09/21 05:15:14;;;;;;;;;;;7.10;99.90;;;;;;12465783;28;19941;-86
2022/09/21 05:21:16;;;;;;;;;;;7.10;99.90;;;;;;12467039;28;19925;-86
2022/09/21 05:27:17;;;;;;;;;;;7.20;99.90;;;;;;12477374;28;19932;-86
2022/09/21 05:33:20;;;;;;;;;;;7.20;99.90;;;;;;12474953;28;19936;-86
2022/09/21 05:39:22;;;;;;;;;;;7.20;99.90;;;;;;12459099;28;19937;-86
2022/09/21 05:45:24;;;;;;;;;;;7.20;99.90;;;;;;12459743;28;19952;-86
2022/09/21 05:51:38;;;;;;;;;;;7.10;99.90;;;;;;12466503;28;19933;-86
2022/09/21 05:57:45;;;;;;;;;;;7.20;99.90;;;;;;12463089;28;19925;-86
2022/09/21 06:03:48;;;;;;;;;;;7.30;99.90;;;;;;12470718;28;19932;-86
2022/09/21 06:09:50;;;;;;;;;;;7.20;99.90;;;;;;12474232;28;19925;-85
2022/09/21 06:15:52;;;;;;;;;;;7.40;99.90;;;;;;12464763;28;19933;-86
2022/09/21 06:21:54;;;;;;;;;;;7.30;99.90;;;;;;12466258;28;19925;-86
2022/09/21 06:28:00;;;;;;;;;;;7.20;99.90;;;;;;12471874;28;19980;-86
2022/09/21 06:34:02;;;;;;;;;;;7.20;99.90;;;;;;12471763;28;19929;-86
2022/09/21 06:40:04;;;;;;;;;;;7.20;99.90;;;;;;12479355;28;19932;-86
2022/09/21 06:46:05;;;;;;;;;;;7.20;99.90;;;;;;12471311;28;20373;-86
2022/09/21 06:52:07;;;;;;;;;;;7.20;99.90;;;;;;12460903;28;19936;-86
2022/09/21 06:58:09;;;;;;;;;;;7.30;99.90;;;;;;12466856;28;19926;-86
2022/09/21 07:04:11;;;;;;;;;;;7.50;99.90;;;;;;12476854;28;19926;-86
2022/09/21 07:10:12;;;;;;;;;;;7.60;99.90;;;;;;12475936;28;19937;-86
2022/09/21 07:16:21;;;;;;;;;;;7.90;99.90;;;;;;12472558;28;19992;-85
2022/09/21 07:22:23;;;;;;;;;;;7.80;99.90;;;;;;12448254;28;19929;-86
2022/09/21 07:28:24;;;;;;;;;;;7.90;99.90;;;;;;12484066;28;20020;-85
2022/09/21 07:34:26;;;;;;;;;;;7.90;99.90;;;;;;12472246;28;19936;-86
2022/09/21 07:40:28;;;;;;;;;;;7.90;99.90;;;;;;12466660;28;19932;-86
2022/09/21 07:46:30;;;;;;;;;;;8.00;99.90;;;;;;12468808;28;19964;-86
2022/09/21 07:52:31;;;;;;;;;;;8.00;99.90;;;;;;12478889;28;19925;-86
2022/09/21 08:04:54;;;;;;;;;;;8.30;99.90;;;;;;12484060;28;19925;-86
2022/09/21 08:11:01;;;;;;;;;;;8.40;99.90;;;;;;12497459;28;19933;-87
2022/09/21 08:17:02;;;;;;;;;;;8.50;99.90;;;;;;12542974;28;19941;-87
2022/09/21 08:23:04;;;;;;;;;;;8.70;99.90;;;;;;12475356;28;19933;-87
2022/09/21 08:29:06;;;;;;;;;;;8.80;99.90;;;;;;12488596;28;19925;-87
2022/09/21 08:35:08;;;;;;;;;;;8.90;99.90;;;;;;12470460;28;19931;-87
2022/09/21 08:41:13;;;;;;;;;;;9.00;99.90;;;;;;12476287;28;20754;-87
2022/09/21 08:47:33;;;;;;;;;;;9.10;99.90;;;;;;12471216;28;19925;-87
2022/09/21 08:53:37;;;;;;;;;;;9.20;99.90;;;;;;12477115;28;19936;-87
2022/09/21 08:59:44;;;;;;;;;;;9.40;99.90;;;;;;12474046;28;19928;-87
2022/09/21 09:05:52;;;;;;;;;;;9.70;99.90;;;;;;12465874;28;20714;-87
2022/09/21 09:12:03;;;;;;;;;;;9.90;99.90;;;;;;12463323;28;20399;-88
2022/09/21 09:18:37;;;;;;;;;;;9.90;99.90;;;;;;12486167;28;20024;-88
2022/09/21 09:24:47;;;;;;;;;;;10.10;99.90;;;;;;12464168;28;19964;-88
2022/09/21 09:30:57;;;;;;;;;;;10.10;99.90;;;;;;12473435;28;19925;-88
2022/09/21 09:37:15;;;;;;;;;;;10.30;99.90;;;;;;12465197;28;19956;-88
2022/09/21 09:43:29;;;;;;;;;;;10.30;99.90;;;;;;12463928;28;19925;-88
2022/09/21 09:49:37;;;;;;;;;;;10.60;99.90;;;;;;12456972;28;19936;-88
2022/09/21 09:55:41;;;;;;;;;;;10.80;99.90;;;;;;12461298;28;19925;-88
2022/09/21 10:01:45;;;;;;;;;;;11.10;99.90;;;;;;12472189;28;19929;-88
2022/09/21 10:07:47;;;;;;;;;;;11.40;99.90;;;;;;12471396;28;19933;-88
2022/09/21 10:13:48;;;;;;;;;;;11.70;99.90;;;;;;12454527;28;19932;-88
2022/09/21 10:20:10;;;;;;;;;;;11.80;99.90;;;;;;12469341;28;20013;-88
2022/09/21 10:26:12;;;;;;;;;;;12.60;99.90;;;;;;12451786;28;19937;-88
2022/09/21 10:32:16;;;;;;;;;;;12.80;99.90;;;;;;12463298;28;19932;-88
2022/09/21 10:38:19;;;;;;;;;;;13.60;99.90;;;;;;12463597;28;19932;-88
2022/09/21 10:44:25;;;;;;;;;;;13.60;99.90;;;;;;12474061;28;20019;-88
2022/09/21 10:50:29;;;;;;;;;;;14.10;99.90;;;;;;12471973;28;19984;-88
2022/09/21 10:56:30;;;;;;;;;;;14.40;99.90;;;;;;12476225;28;19929;-88
2022/09/21 11:02:32;;;;;;;;;;;14.50;99.90;;;;;;12479575;28;19933;-88
2022/09/21 11:08:37;;;;;;;;;;;15.00;99.90;;;;;;12477367;28;19933;-88
2022/09/21 11:14:41;;;;;;;;;;;15.50;99.90;;;;;;12469923;28;19983;-88
2022/09/21 11:20:49;;;;;;;;;;;15.40;99.90;;;;;;12464209;28;19929;-88
2022/09/21 11:27:07;;;;;;;;;;;15.60;99.90;;;;;;12470695;28;20373;-89
2022/09/21 11:33:36;;;;;;;;;;;15.90;99.90;;;;;;12478808;28;19933;-88
2022/09/21 11:39:50;;;;;;;;;;;15.90;99.90;;;;;;12471269;28;19933;-88
2022/09/21 11:46:11;;;;;;;;;;;15.80;99.90;;;;;;12469265;28;19933;-89
2022/09/21 11:52:13;;;;;;;;;;;16.40;99.90;;;;;;12480895;28;19936;-89
2022/09/21 11:58:31;;;;;;;;;;;16.50;99.90;;;;;;12467237;28;19925;-89
2022/09/21 12:04:42;;;;;;;;;;;16.90;99.90;;;;;;12476346;28;19937;-88
2022/09/21 12:11:02;;;;;;;;;;;16.70;99.90;;;;;;12461912;28;19932;-88
2022/09/21 12:17:13;;;;;;;;;;;16.90;99.90;;;;;;12467611;28;19936;-88
2022/09/21 12:23:20;;;;;;;;;;;17.50;99.90;;;;;;12473186;28;19932;-89
2022/09/21 12:29:26;;;;;;;;;;;17.40;99.90;;;;;;12481876;28;19932;-88
2022/09/21 12:35:34;;;;;;;;;;;17.60;99.90;;;;;;12473087;28;19930;-88
2022/09/21 12:41:39;;;;;;;;;;;17.70;99.90;;;;;;12464839;28;19936;-88
2022/09/21 12:47:50;;;;;;;;;;;18.00;99.90;;;;;;12457414;28;19925;-88
2022/09/21 12:53:53;;;;;;;;;;;18.20;99.90;;;;;;12458598;28;19936;-88
2022/09/21 13:00:01;;;;;;;;;;;18.10;99.90;;;;;;12459304;28;19929;-88
2022/09/21 13:06:18;;;;;;;;;;;18.10;99.90;;;;;;12459593;28;19934;-88
2022/09/21 13:12:38;;;;;;;;;;;17.60;99.90;;;;;;12478103;28;20374;-88
2022/09/21 13:18:40;;;;;;;;;;;17.70;99.90;;;;;;12465368;28;19937;-89
2022/09/21 13:24:43;;;;;;;;;;;17.10;99.90;;;;;;12484033;28;19925;-88
2022/09/21 13:30:46;;;;;;;;;;;17.50;99.90;;;;;;12466589;28;19932;-88
2022/09/21 13:37:06;;;;;;;;;;;17.50;99.90;;;;;;12464742;28;20301;-88
2022/09/21 13:43:14;;;;;;;;;;;17.80;99.90;;;;;;12472550;28;19932;-88
2022/09/21 13:49:18;;;;;;;;;;;17.80;99.90;;;;;;12462115;28;19925;-88
2022/09/21 13:55:26;;;;;;;;;;;17.80;99.90;;;;;;12459011;28;19926;-88
2022/09/21 14:01:32;;;;;;;;;;;17.40;99.90;;;;;;12476434;28;19936;-88
2022/09/21 14:07:55;;;;;;;;;;;17.40;99.90;;;;;;12468870;28;20202;-88
2022/09/21 14:14:06;;;;;;;;;;;17.00;99.90;;;;;;12471550;28;20407;-88
2022/09/21 14:20:29;;;;;;;;;;;16.60;99.90;;;;;;12467534;28;19929;-88
2022/09/21 14:26:40;;;;;;;;;;;16.50;99.90;;;;;;12469979;28;19936;-87
2022/09/21 14:32:44;;;;;;;;;;;16.20;99.90;;;;;;12470707;28;19930;-88
2022/09/21 14:38:51;;;;;;;;;;;15.80;99.90;;;;;;12478749;28;19929;-87
2022/09/21 14:45:00;;;;;;;;;;;15.70;99.90;;;;;;12474290;28;19930;-87
2022/09/21 14:51:15;;;;;;;;;;;15.90;99.90;;;;;;12469063;28;20287;-87
2022/09/21 14:57:34;;;;;;;;;;;16.00;99.90;;;;;;12474230;28;19925;-88
2022/09/21 15:03:53;;;;;;;;;;;16.30;99.90;;;;;;12472156;28;19930;-88
2022/09/21 15:16:24;;;;;;;;;;;16.50;99.90;;;;;;12472401;28;19936;-87
2022/09/21 15:22:26;;;;;;;;;;;16.90;99.90;;;;;;12475903;28;19925;-88
2022/09/21 15:28:34;;;;;;;;;;;17.00;99.90;;;;;;12471455;28;20377;-88
2022/09/21 15:34:58;;;;;;;;;;;16.60;99.90;;;;;;12469548;28;19930;-87
2022/09/21 15:41:00;;;;;;;;;;;16.50;99.90;;;;;;12469890;28;19936;-88
2022/09/21 15:47:10;;;;;;;;;;;16.90;99.90;;;;;;12472675;28;19925;-87
2022/09/21 15:53:18;;;;;;;;;;;17.00;99.90;;;;;;12470572;28;19925;-87
2022/09/21 15:59:20;;;;;;;;;;;16.70;99.90;;;;;;12465349;28;19933;-87
2022/09/21 16:05:24;;;;;;;;;;;16.60;99.90;;;;;;12480025;28;19996;-87
2022/09/21 16:11:26;;;;;;;;;;;17.00;99.90;;;;;;12462957;28;20007;-87
2022/09/21 16:17:28;;;;;;;;;;;17.00;99.90;;;;;;12476661;28;20266;-88
2022/09/21 16:23:30;;;;;;;;;;;16.90;99.90;;;;;;12461075;28;19929;-87
2022/09/21 16:29:39;;;;;;;;;;;16.40;99.90;;;;;;12476930;28;19925;-88
2022/09/21 16:35:40;;;;;;;;;;;16.00;99.90;;;;;;12458936;28;20284;-87
2022/09/21 16:41:48;;;;;;;;;;;15.60;99.90;;;;;;12475828;28;19935;-87
2022/09/21 16:47:52;;;;;;;;;;;15.30;99.90;;;;;;12461047;28;19929;-87
2022/09/21 16:53:57;;;;;;;;;;;15.10;99.90;;;;;;12465609;28;20458;-87
2022/09/21 16:59:59;;;;;;;;;;;14.80;99.90;;;;;;12462781;28;19936;-87
2022/09/21 17:06:01;;;;;;;;;;;14.60;99.90;;;;;;12464262;28;19925;-87
2022/09/21 17:12:05;;;;;;;;;;;14.40;99.90;;;;;;12470912;28;19926;-87
2022/09/21 17:18:09;;;;;;;;;;;14.20;99.90;;;;;;12461559;28;19929;-87
2022/09/21 17:24:11;;;;;;;;;;;13.90;99.90;;;;;;12459834;28;19971;-87
2022/09/21 17:30:33;;;;;;;;;;;13.60;99.90;;;;;;12461202;28;19930;-86
2022/09/21 17:36:35;;;;;;;;;;;13.40;99.90;;;;;;12458498;28;19933;-87
2022/09/21 17:42:38;;;;;;;;;;;13.20;99.90;;;;;;12460305;28;19932;-86
2022/09/21 17:48:40;;;;;;;;;;;13.10;99.90;;;;;;12451017;28;19952;-86
2022/09/21 17:54:42;;;;;;;;;;;12.90;99.90;;;;;;12453908;28;19933;-86
2022/09/21 18:00:44;;;;;;;;;;;12.70;99.90;;;;;;12464981;28;20331;-86
2022/09/21 18:06:46;;;;;;;;;;;12.60;99.90;;;;;;12469391;28;20408;-86
2022/09/21 18:12:53;;;;;;;;;;;12.30;99.90;;;;;;12446343;28;19932;-86
2022/09/21 18:19:04;;;;;;;;;;;12.30;99.90;;;;;;12470441;28;20607;-86
2022/09/21 18:25:29;;;;;;;;;;;12.10;99.90;;;;;;12480192;28;19933;-86
2022/09/21 18:31:40;;;;;;;;;;;12.00;99.90;;;;;;12469346;28;19937;-86
2022/09/21 18:37:56;;;;;;;;;;;11.80;99.90;;;;;;12451880;28;19932;-86
2022/09/21 18:43:59;;;;;;;;;;;11.70;99.90;;;;;;12462162;28;19925;-86
2022/09/21 18:50:01;;;;;;;;;;;11.40;99.90;;;;;;12458608;28;19925;-86
2022/09/21 18:56:04;;;;;;;;;;;11.40;99.90;;;;;;12472249;28;19952;-85
2022/09/21 19:02:14;;;;;;;;;;;11.30;99.90;;;;;;12474505;28;19930;-86
2022/09/21 19:08:22;;;;;;;;;;;11.10;99.90;;;;;;12477737;28;20396;-86
2022/09/21 19:14:24;;;;;;;;;;;11.10;99.90;;;;;;12462815;28;19932;-86
2022/09/21 19:20:37;;;;;;;;;;;11.10;99.90;;;;;;12464943;28;19932;-85
2022/09/21 19:26:39;;;;;;;;;;;10.90;99.90;;;;;;12467991;28;19930;-85
2022/09/21 19:32:48;;;;;;;;;;;10.90;99.90;;;;;;12467742;28;20293;-85
2022/09/21 19:38:50;;;;;;;;;;;10.80;99.90;;;;;;12466249;28;19929;-85
2022/09/21 19:44:57;;;;;;;;;;;10.80;99.90;;;;;;12459144;28;19932;-86
2022/09/21 19:50:59;;;;;;;;;;;10.80;99.90;;;;;;12462493;28;20326;-86
2022/09/21 20:03:26;;;;;;;;;;;10.70;99.90;;;;;;12469628;28;19932;-86
2022/09/21 20:09:38;;;;;;;;;;;10.70;99.90;;;;;;12463272;28;19929;-86
2022/09/21 20:15:41;;;;;;;;;;;10.50;99.90;;;;;;12469982;28;19925;-85
2022/09/21 20:21:44;;;;;;;;;;;10.50;99.90;;;;;;12465868;28;20388;-85
2022/09/21 20:27:49;;;;;;;;;;;10.50;99.90;;;;;;12464186;28;19976;-85
2022/09/21 20:33:51;;;;;;;;;;;10.50;99.90;;;;;;12471016;28;20301;-86
2022/09/21 20:39:53;;;;;;;;;;;10.30;99.90;;;;;;12469611;28;19936;-85
2022/09/21 20:45:57;;;;;;;;;;;10.40;99.90;;;;;;12456221;28;20384;-85
2022/09/21 20:52:00;;;;;;;;;;;10.40;99.90;;;;;;12461968;28;20297;-85
2022/09/21 20:58:01;;;;;;;;;;;10.40;99.90;;;;;;12460734;28;19925;-86
2022/09/21 21:04:03;;;;;;;;;;;10.30;99.90;;;;;;12466565;28;19925;-85
2022/09/21 21:10:05;;;;;;;;;;;10.20;99.90;;;;;;12475068;28;20154;-85
2022/09/21 21:16:07;;;;;;;;;;;10.00;99.90;;;;;;12466491;28;19925;-85
2022/09/21 21:22:13;;;;;;;;;;;10.00;99.90;;;;;;12464060;28;20316;-85
2022/09/21 21:28:14;;;;;;;;;;;9.90;99.90;;;;;;12472303;28;19925;-85
2022/09/21 21:34:16;;;;;;;;;;;9.90;99.90;;;;;;12465375;28;19929;-85
2022/09/21 21:40:19;;;;;;;;;;;10.10;99.90;;;;;;12454168;28;19933;-85
2022/09/21 21:46:21;;;;;;;;;;;10.20;99.90;;;;;;12464520;28;19974;-85
2022/09/21 21:52:23;;;;;;;;;;;10.30;99.90;;;;;;12462450;28;19925;-85
2022/09/21 21:58:26;;;;;;;;;;;10.20;99.90;;;;;;12458982;28;19936;-85
2022/09/21 22:04:28;;;;;;;;;;;10.10;99.90;;;;;;12468776;28;19933;-85
2022/09/21 22:10:30;;;;;;;;;;;10.10;99.90;;;;;;12468092;28;19926;-85
2022/09/21 22:16:32;;;;;;;;;;;10.00;99.90;;;;;;12467702;28;19948;-85
2022/09/21 22:22:34;;;;;;;;;;;9.90;99.90;;;;;;12473632;28;19937;-85
2022/09/21 22:28:37;;;;;;;;;;;9.70;99.90;;;;;;12456037;28;19936;-85
2022/09/21 22:34:38;;;;;;;;;;;9.70;99.90;;;;;;12470784;28;19929;-85
2022/09/21 22:40:40;;;;;;;;;;;9.60;99.90;;;;;;12464383;28;19929;-85
2022/09/21 22:46:42;;;;;;;;;;;9.50;99.90;;;;;;12467411;28;19948;-85
2022/09/21 22:52:44;;;;;;;;;;;9.60;99.90;;;;;;12469779;28;19932;-85
2022/09/21 22:58:47;;;;;;;;;;;9.70;99.90;;;;;;12482872;28;19929;-85
2022/09/21 23:04:49;;;;;;;;;;;9.60;99.90;;;;;;12476057;28;20335;-85
2022/09/21 23:10:50;;;;;;;;;;;9.60;99.90;;;;;;12459266;28;20325;-85
2022/09/21 23:16:52;;;;;;;;;;;9.50;99.90;;;;;;12466949;28;19934;-85
2022/09/21 23:22:54;;;;;;;;;;;9.30;99.90;;;;;;12472757;28;20329;-86
2022/09/21 23:28:59;;;;;;;;;;;9.20;99.90;;;;;;12470801;28;19936;-85
2022/09/21 23:35:01;;;;;;;;;;;9.10;99.90;;;;;;12464627;28;19926;-85
2022/09/21 23:41:10;;;;;;;;;;;9.10;99.90;;;;;;12463623;28;19926;-85
2022/09/21 23:47:12;;;;;;;;;;;9.20;99.90;;;;;;12466262;28;20395;-85
2022/09/21 23:53:14;;;;;;;;;;;9.10;99.90;;;;;;12471621;28;20296;-85
2022/09/21 23:59:15;;;;;;;;;;;9.20;99.90;;;;;;12464116;28;19925;-85
